Terminal Aerodrome Forecast
Issued by NWS

Home | Current Version | Previous Version | Text Only | Print | Product List | Glossary Off
Versions: 1 2 3 4 5 6 7 8 9 10 11 12 13 14 15 16 17 18 19

000
FTUS43 KTOP 281122
TAFFOE
TAF
KFOE 281122Z 2812/2912 17009KT P6SM SCT070 BKN100
      TEMPO 2812/2814 6SM -SHRA OVC070
     FM281400 20010KT P6SM SCT070 BKN100
     FM282100 19009KT P6SM VCTS BKN050CB
     FM290000 27005KT P6SM BKN120=

USA.gov is the U.S. government's official web portal to all federal, state and local government web resources and services.